sensor_id;sensor_type;location;lat;lon;timestamp;noise_LAeq;noise_LA_min;noise_LA_max;noise_LA01;noise_LA95
64077;Laerm;51039;49.696;10.808;2023-02-26T00:00:12;43.24;42.06;45.52;;
64077;Laerm;51039;49.696;10.808;2023-02-26T00:02:40;43.36;42.02;44.69;;
64077;Laerm;51039;49.696;10.808;2023-02-26T00:05:07;43.51;42.24;44.76;;
64077;Laerm;51039;49.696;10.808;2023-02-26T00:07:33;43.57;42.43;44.98;;
64077;Laerm;51039;49.696;10.808;2023-02-26T00:09:58;43.67;42.42;44.79;;
64077;Laerm;51039;49.696;10.808;2023-02-26T00:12:25;43.72;42.53;44.93;;
64077;Laerm;51039;49.696;10.808;2023-02-26T00:14:51;43.76;42.35;44.85;;
64077;Laerm;51039;49.696;10.808;2023-02-26T00:20:13;43.87;42.58;45.11;;
64077;Laerm;51039;49.696;10.808;2023-02-26T00:22:41;43.92;42.49;45.01;;
64077;Laerm;51039;49.696;10.808;2023-02-26T00:25:07;43.93;42.65;45.07;;
64077;Laerm;51039;49.696;10.808;2023-02-26T00:27:32;43.96;42.79;45.10;;
64077;Laerm;51039;49.696;10.808;2023-02-26T00:29:58;43.94;42.47;49.51;;
64077;Laerm;51039;49.696;10.808;2023-02-26T00:32:24;43.77;42.55;47.95;;
64077;Laerm;51039;49.696;10.808;2023-02-26T00:34:49;43.57;42.19;46.98;;
64077;Laerm;51039;49.696;10.808;2023-02-26T00:41:03;43.17;41.96;45.71;;
64077;Laerm;51039;49.696;10.808;2023-02-26T00:43:06;43.14;41.75;44.41;;
64077;Laerm;51039;49.696;10.808;2023-02-26T00:45:31;43.18;42.06;45.63;;
64077;Laerm;51039;49.696;10.808;2023-02-26T00:50:58;43.14;41.91;47.21;;
64077;Laerm;51039;49.696;10.808;2023-02-26T00:53:39;43.08;41.66;44.71;;
64077;Laerm;51039;49.696;10.808;2023-02-26T00:56:08;42.99;41.74;44.33;;
64077;Laerm;51039;49.696;10.808;2023-02-26T00:58:34;42.91;41.68;44.26;;
64077;Laerm;51039;49.696;10.808;2023-02-26T01:00:59;42.85;41.49;44.08;;
64077;Laerm;51039;49.696;10.808;2023-02-26T01:03:25;42.84;41.44;44.09;;
64077;Laerm;51039;49.696;10.808;2023-02-26T01:05:50;42.80;41.57;43.98;;
64077;Laerm;51039;49.696;10.808;2023-02-26T01:08:26;42.78;41.39;43.98;;
64077;Laerm;51039;49.696;10.808;2023-02-26T01:10:53;42.73;41.24;43.85;;
64077;Laerm;51039;49.696;10.808;2023-02-26T01:13:19;42.73;41.50;44.97;;
64077;Laerm;51039;49.696;10.808;2023-02-26T01:15:50;42.72;41.19;43.84;;
64077;Laerm;51039;49.696;10.808;2023-02-26T01:18:25;42.68;41.35;44.66;;
64077;Laerm;51039;49.696;10.808;2023-02-26T01:20:56;42.68;41.36;43.94;;
64077;Laerm;51039;49.696;10.808;2023-02-26T01:23:25;42.73;41.22;43.93;;
64077;Laerm;51039;49.696;10.808;2023-02-26T01:26:01;42.74;41.41;44.40;;
64077;Laerm;51039;49.696;10.808;2023-02-26T01:28:28;42.83;41.43;45.54;;
64077;Laerm;51039;49.696;10.808;2023-02-26T01:30:57;42.72;41.44;46.50;;
64077;Laerm;51039;49.696;10.808;2023-02-26T01:33:49;42.72;41.29;50.97;;
64077;Laerm;51039;49.696;10.808;2023-02-26T01:36:20;42.65;41.48;43.75;;
64077;Laerm;51039;49.696;10.808;2023-02-26T01:39:01;42.66;41.45;43.82;;
64077;Laerm;51039;49.696;10.808;2023-02-26T01:41:35;42.65;41.52;44.06;;
64077;Laerm;51039;49.696;10.808;2023-02-26T01:46:56;42.55;41.24;43.62;;
64077;Laerm;51039;49.696;10.808;2023-02-26T01:49:23;42.55;41.31;43.92;;
64077;Laerm;51039;49.696;10.808;2023-02-26T01:51:50;42.58;41.30;43.80;;
64077;Laerm;51039;49.696;10.808;2023-02-26T01:54:24;42.66;41.06;43.84;;
64077;Laerm;51039;49.696;10.808;2023-02-26T01:56:58;42.72;41.42;44.40;;
64077;Laerm;51039;49.696;10.808;2023-02-26T01:59:24;42.80;41.55;43.92;;
64077;Laerm;51039;49.696;10.808;2023-02-26T02:01:53;42.75;41.27;43.74;;
64077;Laerm;51039;49.696;10.808;2023-02-26T02:04:19;42.82;41.57;45.20;;
64077;Laerm;51039;49.696;10.808;2023-02-26T02:06:45;42.84;41.46;45.11;;
64077;Laerm;51039;49.696;10.808;2023-02-26T02:09:11;42.76;41.42;44.50;;
64077;Laerm;51039;49.696;10.808;2023-02-26T02:17:13;42.89;41.53;44.15;;
64077;Laerm;51039;49.696;10.808;2023-02-26T02:20:02;42.91;41.62;44.06;;
64077;Laerm;51039;49.696;10.808;2023-02-26T02:22:50;42.88;41.60;44.10;;
64077;Laerm;51039;49.696;10.808;2023-02-26T02:25:39;42.93;41.79;44.18;;
64077;Laerm;51039;49.696;10.808;2023-02-26T02:31:16;43.00;41.84;44.17;;
64077;Laerm;51039;49.696;10.808;2023-02-26T02:33:57;43.06;41.92;44.46;;
64077;Laerm;51039;49.696;10.808;2023-02-26T02:39:03;43.14;41.82;44.31;;
64077;Laerm;51039;49.696;10.808;2023-02-26T02:41:34;43.16;41.92;44.27;;
64077;Laerm;51039;49.696;10.808;2023-02-26T02:44:05;43.15;41.75;44.44;;
64077;Laerm;51039;49.696;10.808;2023-02-26T02:46:36;43.16;41.86;44.41;;
64077;Laerm;51039;49.696;10.808;2023-02-26T02:49:06;43.20;42.01;44.42;;
64077;Laerm;51039;49.696;10.808;2023-02-26T02:51:39;43.22;41.91;44.45;;
64077;Laerm;51039;49.696;10.808;2023-02-26T02:56:55;43.31;41.84;44.70;;
64077;Laerm;51039;49.696;10.808;2023-02-26T02:59:29;43.38;42.12;44.57;;
64077;Laerm;51039;49.696;10.808;2023-02-26T03:02:04;43.45;42.19;44.66;;
64077;Laerm;51039;49.696;10.808;2023-02-26T03:04:32;43.52;42.22;44.72;;
64077;Laerm;51039;49.696;10.808;2023-02-26T03:06:57;43.51;42.25;44.82;;
64077;Laerm;51039;49.696;10.808;2023-02-26T03:09:23;43.55;42.28;44.78;;
64077;Laerm;51039;49.696;10.808;2023-02-26T03:11:48;43.53;42.37;44.76;;
64077;Laerm;51039;49.696;10.808;2023-02-26T03:14:14;43.54;42.36;44.74;;
64077;Laerm;51039;49.696;10.808;2023-02-26T03:16:55;43.53;42.22;44.82;;
64077;Laerm;51039;49.696;10.808;2023-02-26T03:25:11;43.46;42.10;44.58;;
64077;Laerm;51039;49.696;10.808;2023-02-26T03:27:48;43.43;41.92;44.51;;
64077;Laerm;51039;49.696;10.808;2023-02-26T03:35:44;43.27;42.01;44.34;;
64077;Laerm;51039;49.696;10.808;2023-02-26T03:38:18;43.21;41.83;44.32;;
64077;Laerm;51039;49.696;10.808;2023-02-26T03:40:53;43.20;41.89;44.26;;
64077;Laerm;51039;49.696;10.808;2023-02-26T03:45:53;43.15;41.85;44.50;;
64077;Laerm;51039;49.696;10.808;2023-02-26T03:48:23;43.11;41.78;44.17;;
64077;Laerm;51039;49.696;10.808;2023-02-26T03:50:52;43.14;41.85;44.30;;
64077;Laerm;51039;49.696;10.808;2023-02-26T03:53:24;43.20;41.93;44.73;;
64077;Laerm;51039;49.696;10.808;2023-02-26T03:56:01;43.24;42.11;44.37;;
64077;Laerm;51039;49.696;10.808;2023-02-26T03:58:27;43.27;41.92;44.55;;
64077;Laerm;51039;49.696;10.808;2023-02-26T04:00:58;43.25;41.97;44.40;;
64077;Laerm;51039;49.696;10.808;2023-02-26T04:03:41;43.29;41.94;44.47;;
64077;Laerm;51039;49.696;10.808;2023-02-26T04:06:09;43.36;42.08;44.69;;
64077;Laerm;51039;49.696;10.808;2023-02-26T04:08:35;43.36;42.07;44.42;;
64077;Laerm;51039;49.696;10.808;2023-02-26T04:11:08;43.46;42.14;45.70;;
64077;Laerm;51039;49.696;10.808;2023-02-26T04:13:34;43.51;42.01;44.81;;
64077;Laerm;51039;49.696;10.808;2023-02-26T04:16:00;43.54;42.37;44.66;;
64077;Laerm;51039;49.696;10.808;2023-02-26T04:18:25;43.59;42.34;46.11;;
64077;Laerm;51039;49.696;10.808;2023-02-26T04:20:51;43.58;42.39;49.11;;
64077;Laerm;51039;49.696;10.808;2023-02-26T04:23:16;43.63;42.18;44.73;;
64077;Laerm;51039;49.696;10.808;2023-02-26T04:25:43;43.71;42.45;45.02;;
64077;Laerm;51039;49.696;10.808;2023-02-26T04:28:08;43.70;42.39;45.00;;
64077;Laerm;51039;49.696;10.808;2023-02-26T04:30:34;43.76;42.57;45.81;;
64077;Laerm;51039;49.696;10.808;2023-02-26T04:32:59;43.76;42.46;45.65;;
64077;Laerm;51039;49.696;10.808;2023-02-26T04:35:24;43.74;42.32;45.69;;
64077;Laerm;51039;49.696;10.808;2023-02-26T04:37:49;43.78;42.19;45.66;;
64077;Laerm;51039;49.696;10.808;2023-02-26T04:40:15;43.79;42.46;46.35;;
64077;Laerm;51039;49.696;10.808;2023-02-26T04:42:40;43.78;42.72;45.15;;
64077;Laerm;51039;49.696;10.808;2023-02-26T04:45:06;43.79;42.42;45.36;;
64077;Laerm;51039;49.696;10.808;2023-02-26T04:47:31;43.80;42.61;45.05;;
64077;Laerm;51039;49.696;10.808;2023-02-26T04:49:56;43.79;42.41;45.29;;
64077;Laerm;51039;49.696;10.808;2023-02-26T04:52:22;43.79;42.51;45.01;;
64077;Laerm;51039;49.696;10.808;2023-02-26T04:54:47;43.98;42.39;47.15;;
64077;Laerm;51039;49.696;10.808;2023-02-26T04:57:12;43.81;42.41;45.83;;
64077;Laerm;51039;49.696;10.808;2023-02-26T04:59:37;43.84;42.63;46.11;;
64077;Laerm;51039;49.696;10.808;2023-02-26T05:02:03;43.83;42.23;47.19;;
64077;Laerm;51039;49.696;10.808;2023-02-26T05:04:29;43.79;42.46;45.50;;
64077;Laerm;51039;49.696;10.808;2023-02-26T05:06:55;43.76;42.56;44.92;;
64077;Laerm;51039;49.696;10.808;2023-02-26T05:09:20;43.78;42.47;48.75;;
64077;Laerm;51039;49.696;10.808;2023-02-26T05:11:46;43.76;42.41;48.74;;
64077;Laerm;51039;49.696;10.808;2023-02-26T05:14:13;43.75;42.42;46.87;;
64077;Laerm;51039;49.696;10.808;2023-02-26T05:16:38;43.74;42.57;46.47;;
64077;Laerm;51039;49.696;10.808;2023-02-26T05:19:03;43.74;42.53;47.02;;
64077;Laerm;51039;49.696;10.808;2023-02-26T05:21:29;43.72;42.27;45.14;;
64077;Laerm;51039;49.696;10.808;2023-02-26T05:23:54;43.70;42.47;48.80;;
64077;Laerm;51039;49.696;10.808;2023-02-26T05:26:19;43.69;42.43;45.78;;
64077;Laerm;51039;49.696;10.808;2023-02-26T05:28:45;43.69;42.35;44.86;;
64077;Laerm;51039;49.696;10.808;2023-02-26T05:31:11;43.71;42.08;46.59;;
64077;Laerm;51039;49.696;10.808;2023-02-26T05:33:37;43.71;42.47;46.50;;
64077;Laerm;51039;49.696;10.808;2023-02-26T05:36:03;43.70;42.39;46.52;;
64077;Laerm;51039;49.696;10.808;2023-02-26T05:38:29;43.68;42.47;45.76;;
64077;Laerm;51039;49.696;10.808;2023-02-26T05:40:56;43.71;42.29;48.15;;
64077;Laerm;51039;49.696;10.808;2023-02-26T05:43:22;43.69;42.30;44.88;;
64077;Laerm;51039;49.696;10.808;2023-02-26T05:45:49;43.66;42.39;44.86;;
64077;Laerm;51039;49.696;10.808;2023-02-26T05:48:14;43.65;42.40;46.05;;
64077;Laerm;51039;49.696;10.808;2023-02-26T05:50:39;43.64;42.42;44.82;;
64077;Laerm;51039;49.696;10.808;2023-02-26T05:53:05;43.65;42.25;44.93;;
64077;Laerm;51039;49.696;10.808;2023-02-26T05:55:30;43.65;42.40;44.89;;
64077;Laerm;51039;49.696;10.808;2023-02-26T05:57:55;43.64;42.36;45.54;;
64077;Laerm;51039;49.696;10.808;2023-02-26T06:00:21;43.61;42.44;44.99;;
64077;Laerm;51039;49.696;10.808;2023-02-26T06:02:46;43.63;42.46;45.02;;
64077;Laerm;51039;49.696;10.808;2023-02-26T06:05:11;43.61;42.27;45.34;;
64077;Laerm;51039;49.696;10.808;2023-02-26T06:07:36;43.61;42.31;44.82;;
64077;Laerm;51039;49.696;10.808;2023-02-26T06:10:02;43.64;42.26;44.76;;
64077;Laerm;51039;49.696;10.808;2023-02-26T06:12:27;43.63;42.40;44.93;;
64077;Laerm;51039;49.696;10.808;2023-02-26T06:14:52;43.58;42.40;44.69;;
64077;Laerm;51039;49.696;10.808;2023-02-26T06:17:18;43.62;42.37;44.77;;
64077;Laerm;51039;49.696;10.808;2023-02-26T06:19:43;43.61;42.26;44.80;;
64077;Laerm;51039;49.696;10.808;2023-02-26T06:22:09;43.60;42.05;44.75;;
64077;Laerm;51039;49.696;10.808;2023-02-26T06:24:34;43.60;42.44;44.82;;
64077;Laerm;51039;49.696;10.808;2023-02-26T06:27:00;43.62;42.44;44.84;;
64077;Laerm;51039;49.696;10.808;2023-02-26T06:29:25;43.62;42.21;44.75;;
64077;Laerm;51039;49.696;10.808;2023-02-26T06:31:50;43.63;42.29;44.77;;
64077;Laerm;51039;49.696;10.808;2023-02-26T06:34:16;43.66;42.32;44.77;;
64077;Laerm;51039;49.696;10.808;2023-02-26T06:36:42;43.66;42.49;44.88;;
64077;Laerm;51039;49.696;10.808;2023-02-26T06:39:07;43.68;42.40;44.94;;
64077;Laerm;51039;49.696;10.808;2023-02-26T06:41:33;43.68;42.43;45.03;;
64077;Laerm;51039;49.696;10.808;2023-02-26T06:43:59;43.69;42.40;44.92;;
64077;Laerm;51039;49.696;10.808;2023-02-26T06:46:24;43.68;42.51;44.74;;
64077;Laerm;51039;49.696;10.808;2023-02-26T06:48:50;43.65;42.41;44.77;;
64077;Laerm;51039;49.696;10.808;2023-02-26T06:51:15;43.63;42.56;44.91;;
64077;Laerm;51039;49.696;10.808;2023-02-26T06:53:40;43.63;42.34;44.72;;
64077;Laerm;51039;49.696;10.808;2023-02-26T06:56:06;43.67;42.40;45.01;;
64077;Laerm;51039;49.696;10.808;2023-02-26T06:58:31;43.71;42.43;45.15;;
64077;Laerm;51039;49.696;10.808;2023-02-26T07:00:56;43.75;42.57;45.07;;
64077;Laerm;51039;49.696;10.808;2023-02-26T07:03:22;43.77;42.69;44.92;;
64077;Laerm;51039;49.696;10.808;2023-02-26T07:05:47;43.83;42.43;45.15;;
64077;Laerm;51039;49.696;10.808;2023-02-26T07:08:13;43.90;42.79;45.10;;
64077;Laerm;51039;49.696;10.808;2023-02-26T07:10:39;43.95;42.74;45.08;;
64077;Laerm;51039;49.696;10.808;2023-02-26T07:13:04;43.92;42.54;45.41;;
64077;Laerm;51039;49.696;10.808;2023-02-26T07:15:30;43.89;42.56;45.14;;
64077;Laerm;51039;49.696;10.808;2023-02-26T07:17:56;43.88;42.46;45.00;;
64077;Laerm;51039;49.696;10.808;2023-02-26T07:20:21;43.91;42.57;45.01;;
64077;Laerm;51039;49.696;10.808;2023-02-26T07:22:47;43.88;42.75;45.27;;
64077;Laerm;51039;49.696;10.808;2023-02-26T07:25:12;43.82;42.54;45.01;;
64077;Laerm;51039;49.696;10.808;2023-02-26T07:27:37;43.80;42.57;44.96;;
64077;Laerm;51039;49.696;10.808;2023-02-26T07:30:04;43.89;42.53;45.11;;
64077;Laerm;51039;49.696;10.808;2023-02-26T07:32:30;43.96;42.70;45.28;;
64077;Laerm;51039;49.696;10.808;2023-02-26T07:34:56;44.02;42.87;45.09;;
64077;Laerm;51039;49.696;10.808;2023-02-26T07:37:21;43.99;42.70;45.15;;
64077;Laerm;51039;49.696;10.808;2023-02-26T07:39:47;44.00;42.73;45.25;;
64077;Laerm;51039;49.696;10.808;2023-02-26T07:42:12;43.98;42.65;45.23;;
64077;Laerm;51039;49.696;10.808;2023-02-26T07:44:37;43.99;42.31;45.21;;
64077;Laerm;51039;49.696;10.808;2023-02-26T07:47:03;43.98;42.66;45.33;;
64077;Laerm;51039;49.696;10.808;2023-02-26T07:49:28;43.97;42.79;45.13;;
64077;Laerm;51039;49.696;10.808;2023-02-26T07:51:53;43.97;42.64;45.13;;
64077;Laerm;51039;49.696;10.808;2023-02-26T07:54:19;43.98;42.72;45.29;;
64077;Laerm;51039;49.696;10.808;2023-02-26T07:56:44;43.98;42.80;45.25;;
64077;Laerm;51039;49.696;10.808;2023-02-26T07:59:10;44.04;42.83;45.29;;
64077;Laerm;51039;49.696;10.808;2023-02-26T08:01:36;44.08;42.89;45.41;;
64077;Laerm;51039;49.696;10.808;2023-02-26T08:04:02;44.10;42.76;45.52;;
64077;Laerm;51039;49.696;10.808;2023-02-26T08:06:27;44.12;43.00;45.22;;
64077;Laerm;51039;49.696;10.808;2023-02-26T08:08:53;44.16;42.82;45.37;;
64077;Laerm;51039;49.696;10.808;2023-02-26T08:11:18;44.17;43.11;45.39;;
64077;Laerm;51039;49.696;10.808;2023-02-26T08:13:44;44.22;42.90;45.49;;
64077;Laerm;51039;49.696;10.808;2023-02-26T08:16:09;44.24;42.98;45.49;;
64077;Laerm;51039;49.696;10.808;2023-02-26T08:18:34;44.25;43.05;45.42;;
64077;Laerm;51039;49.696;10.808;2023-02-26T08:20:59;44.28;43.02;45.55;;
64077;Laerm;51039;49.696;10.808;2023-02-26T08:23:25;44.26;42.89;45.47;;
64077;Laerm;51039;49.696;10.808;2023-02-26T08:25:58;44.23;42.96;45.54;;
64077;Laerm;51039;49.696;10.808;2023-02-26T08:28:24;44.18;42.91;45.47;;
64077;Laerm;51039;49.696;10.808;2023-02-26T08:30:52;44.16;42.72;45.45;;
64077;Laerm;51039;49.696;10.808;2023-02-26T08:33:17;44.11;42.77;48.04;;
64077;Laerm;51039;49.696;10.808;2023-02-26T08:35:43;44.06;42.76;46.39;;
64077;Laerm;51039;49.696;10.808;2023-02-26T08:38:08;44.08;42.74;45.26;;
64077;Laerm;51039;49.696;10.808;2023-02-26T08:40:34;44.06;42.64;45.85;;
64077;Laerm;51039;49.696;10.808;2023-02-26T08:42:59;43.96;42.69;47.07;;
64077;Laerm;51039;49.696;10.808;2023-02-26T08:45:24;43.90;42.34;45.16;;
64077;Laerm;51039;49.696;10.808;2023-02-26T08:47:49;43.88;42.55;59.84;;
64077;Laerm;51039;49.696;10.808;2023-02-26T08:50:16;43.66;42.22;46.87;;
64077;Laerm;51039;49.696;10.808;2023-02-26T08:52:41;43.62;42.15;45.01;;
64077;Laerm;51039;49.696;10.808;2023-02-26T08:55:07;43.66;42.15;46.92;;
64077;Laerm;51039;49.696;10.808;2023-02-26T08:57:33;43.61;42.21;45.79;;
64077;Laerm;51039;49.696;10.808;2023-02-26T08:59:58;43.64;42.10;45.80;;
64077;Laerm;51039;49.696;10.808;2023-02-26T09:02:23;43.75;42.35;44.95;;
64077;Laerm;51039;49.696;10.808;2023-02-26T09:04:48;43.85;42.31;47.36;;
64077;Laerm;51039;49.696;10.808;2023-02-26T09:07:14;43.95;42.42;50.80;;
64077;Laerm;51039;49.696;10.808;2023-02-26T09:09:39;44.03;42.17;50.76;;
64077;Laerm;51039;49.696;10.808;2023-02-26T09:12:04;44.05;42.59;46.09;;
64077;Laerm;51039;49.696;10.808;2023-02-26T09:14:30;44.10;42.82;46.38;;
64077;Laerm;51039;49.696;10.808;2023-02-26T09:16:55;44.19;42.65;54.31;;
64077;Laerm;51039;49.696;10.808;2023-02-26T09:19:20;44.15;42.65;47.72;;
64077;Laerm;51039;49.696;10.808;2023-02-26T09:21:46;44.31;42.91;56.01;;
64077;Laerm;51039;49.696;10.808;2023-02-26T09:24:11;44.17;42.68;48.93;;
64077;Laerm;51039;49.696;10.808;2023-02-26T09:26:36;44.17;42.74;45.85;;
64077;Laerm;51039;49.696;10.808;2023-02-26T09:29:02;44.24;42.83;48.44;;
64077;Laerm;51039;49.696;10.808;2023-02-26T09:31:28;44.27;42.58;50.52;;
64077;Laerm;51039;49.696;10.808;2023-02-26T09:33:53;44.22;42.51;45.93;;
64077;Laerm;51039;49.696;10.808;2023-02-26T09:36:18;44.21;42.68;46.73;;
64077;Laerm;51039;49.696;10.808;2023-02-26T09:38:44;44.21;42.67;45.87;;
64077;Laerm;51039;49.696;10.808;2023-02-26T09:41:18;44.21;42.70;45.79;;
64077;Laerm;51039;49.696;10.808;2023-02-26T09:47:20;44.22;42.74;48.27;;
64077;Laerm;51039;49.696;10.808;2023-02-26T09:52:22;44.20;42.83;45.50;;
64077;Laerm;51039;49.696;10.808;2023-02-26T09:54:52;44.20;42.81;45.74;;
64077;Laerm;51039;49.696;10.808;2023-02-26T09:57:26;44.17;42.83;46.69;;
64077;Laerm;51039;49.696;10.808;2023-02-26T09:59:54;44.21;42.86;50.47;;
64077;Laerm;51039;49.696;10.808;2023-02-26T10:05:25;44.26;42.67;52.06;;
64077;Laerm;51039;49.696;10.808;2023-02-26T10:08:03;44.20;42.74;49.96;;
64077;Laerm;51039;49.696;10.808;2023-02-26T10:16:02;44.12;42.74;55.93;;
64077;Laerm;51039;49.696;10.808;2023-02-26T10:18:33;44.56;42.73;58.39;;
64077;Laerm;51039;49.696;10.808;2023-02-26T10:21:02;44.65;42.52;58.76;;
64077;Laerm;51039;49.696;10.808;2023-02-26T10:23:57;44.24;42.33;55.35;;
64077;Laerm;51039;49.696;10.808;2023-02-26T10:26:50;44.48;42.64;57.23;;
64077;Laerm;51039;49.696;10.808;2023-02-26T10:32:20;44.20;42.58;59.07;;
64077;Laerm;51039;49.696;10.808;2023-02-26T10:34:56;44.14;42.69;52.37;;
64077;Laerm;51039;49.696;10.808;2023-02-26T10:42:59;44.23;42.64;53.42;;
64077;Laerm;51039;49.696;10.808;2023-02-26T10:48:18;44.09;42.67;50.98;;
64077;Laerm;51039;49.696;10.808;2023-02-26T10:50:51;43.98;42.52;46.72;;
64077;Laerm;51039;49.696;10.808;2023-02-26T10:53:17;43.94;42.73;47.77;;
64077;Laerm;51039;49.696;10.808;2023-02-26T10:55:47;44.13;42.38;51.80;;
64077;Laerm;51039;49.696;10.808;2023-02-26T10:58:17;44.26;42.60;53.65;;
64077;Laerm;51039;49.696;10.808;2023-02-26T11:00:45;44.02;42.53;52.22;;
64077;Laerm;51039;49.696;10.808;2023-02-26T11:03:17;44.03;42.28;50.66;;
64077;Laerm;51039;49.696;10.808;2023-02-26T11:05:43;44.27;42.59;53.61;;
64077;Laerm;51039;49.696;10.808;2023-02-26T11:08:23;44.14;42.46;51.71;;
64077;Laerm;51039;49.696;10.808;2023-02-26T11:10:52;44.41;42.23;58.17;;
64077;Laerm;51039;49.696;10.808;2023-02-26T11:13:20;43.98;42.46;53.40;;
64077;Laerm;51039;49.696;10.808;2023-02-26T11:15:48;44.28;42.51;59.98;;
64077;Laerm;51039;49.696;10.808;2023-02-26T11:18:18;44.08;42.40;54.31;;
64077;Laerm;51039;49.696;10.808;2023-02-26T11:20:46;43.93;42.66;56.75;;
64077;Laerm;51039;49.696;10.808;2023-02-26T11:23:15;43.84;42.33;51.45;;
64077;Laerm;51039;49.696;10.808;2023-02-26T11:25:41;44.00;42.35;53.78;;
64077;Laerm;51039;49.696;10.808;2023-02-26T11:28:24;43.87;42.29;52.23;;
64077;Laerm;51039;49.696;10.808;2023-02-26T11:30:51;43.93;42.19;51.83;;
64077;Laerm;51039;49.696;10.808;2023-02-26T11:33:26;44.27;42.35;58.56;;
64077;Laerm;51039;49.696;10.808;2023-02-26T11:35:54;45.19;42.18;60.98;;
64077;Laerm;51039;49.696;10.808;2023-02-26T11:38:24;43.91;42.17;55.13;;
64077;Laerm;51039;49.696;10.808;2023-02-26T11:40:56;43.70;42.13;50.07;;
64077;Laerm;51039;49.696;10.808;2023-02-26T11:43:24;43.78;42.11;52.41;;
64077;Laerm;51039;49.696;10.808;2023-02-26T11:46:02;43.70;42.38;47.58;;
64077;Laerm;51039;49.696;10.808;2023-02-26T11:48:43;43.82;42.40;49.98;;
64077;Laerm;51039;49.696;10.808;2023-02-26T11:51:18;43.84;41.99;54.30;;
64077;Laerm;51039;49.696;10.808;2023-02-26T11:53:50;44.27;42.34;56.04;;
64077;Laerm;51039;49.696;10.808;2023-02-26T11:56:37;43.70;42.29;50.35;;
64077;Laerm;51039;49.696;10.808;2023-02-26T12:01:40;44.09;42.12;54.97;;
64077;Laerm;51039;49.696;10.808;2023-02-26T12:04:10;43.74;41.99;59.88;;
64077;Laerm;51039;49.696;10.808;2023-02-26T12:06:36;43.79;42.28;53.46;;
64077;Laerm;51039;49.696;10.808;2023-02-26T12:09:02;43.96;42.10;57.71;;
64077;Laerm;51039;49.696;10.808;2023-02-26T12:31:11;44.93;42.09;61.55;;
64077;Laerm;51039;49.696;10.808;2023-02-26T12:42:22;45.42;42.20;58.95;;
64077;Laerm;51039;49.696;10.808;2023-02-26T12:45:05;43.84;42.13;54.24;;
64077;Laerm;51039;49.696;10.808;2023-02-26T12:50:35;43.86;42.09;54.93;;
64077;Laerm;51039;49.696;10.808;2023-02-26T12:58:58;44.86;42.32;58.84;;
64077;Laerm;51039;49.696;10.808;2023-02-26T13:01:57;44.77;41.95;58.39;;
64077;Laerm;51039;49.696;10.808;2023-02-26T13:04:54;43.99;42.17;55.87;;
64077;Laerm;51039;49.696;10.808;2023-02-26T13:07:43;43.60;42.04;52.95;;
64077;Laerm;51039;49.696;10.808;2023-02-26T13:11:35;43.60;41.90;53.48;;
64077;Laerm;51039;49.696;10.808;2023-02-26T13:14:02;43.78;42.02;55.64;;
64077;Laerm;51039;49.696;10.808;2023-02-26T13:16:53;43.94;41.93;56.56;;
64077;Laerm;51039;49.696;10.808;2023-02-26T13:19:42;44.31;42.10;55.75;;
64077;Laerm;51039;49.696;10.808;2023-02-26T13:22:31;43.65;42.11;51.18;;
64077;Laerm;51039;49.696;10.808;2023-02-26T13:25:02;43.73;42.01;53.94;;
64077;Laerm;51039;49.696;10.808;2023-02-26T13:27:33;43.65;41.85;56.63;;
64077;Laerm;51039;49.696;10.808;2023-02-26T13:32:32;44.02;41.96;57.91;;
64077;Laerm;51039;49.696;10.808;2023-02-26T13:35:03;44.03;41.62;54.10;;
64077;Laerm;51039;49.696;10.808;2023-02-26T13:37:33;43.45;41.95;49.74;;
64077;Laerm;51039;49.696;10.808;2023-02-26T13:40:41;44.48;41.92;58.97;;
64077;Laerm;51039;49.696;10.808;2023-02-26T14:06:56;43.95;41.61;64.12;;
64077;Laerm;51039;49.696;10.808;2023-02-26T14:19:42;43.47;41.91;54.94;;
64077;Laerm;51039;49.696;10.808;2023-02-26T14:22:17;43.53;41.87;53.13;;
64077;Laerm;51039;49.696;10.808;2023-02-26T14:24:51;43.39;41.92;49.89;;
64077;Laerm;51039;49.696;10.808;2023-02-26T14:29:57;43.50;41.48;53.15;;
64077;Laerm;51039;49.696;10.808;2023-02-26T14:35:20;43.33;41.74;49.77;;
64077;Laerm;51039;49.696;10.808;2023-02-26T14:37:56;43.53;41.90;53.87;;
64077;Laerm;51039;49.696;10.808;2023-02-26T14:40:23;43.48;41.80;52.14;;
64077;Laerm;51039;49.696;10.808;2023-02-26T14:43:01;43.44;41.96;54.31;;
64077;Laerm;51039;49.696;10.808;2023-02-26T14:45:36;44.00;41.77;59.80;;
64077;Laerm;51039;49.696;10.808;2023-02-26T14:48:05;43.80;41.73;56.43;;
64077;Laerm;51039;49.696;10.808;2023-02-26T14:55:46;43.23;41.81;46.70;;
64077;Laerm;51039;49.696;10.808;2023-02-26T14:58:33;43.99;41.71;59.73;;
64077;Laerm;51039;49.696;10.808;2023-02-26T15:09:10;43.24;41.76;46.97;;
64077;Laerm;51039;49.696;10.808;2023-02-26T15:25:40;43.23;41.79;52.90;;
64077;Laerm;51039;49.696;10.808;2023-02-26T15:28:13;43.23;41.85;48.99;;
64077;Laerm;51039;49.696;10.808;2023-02-26T15:30:45;43.28;41.92;48.80;;
64077;Laerm;51039;49.696;10.808;2023-02-26T15:33:13;43.35;41.86;47.60;;
64077;Laerm;51039;49.696;10.808;2023-02-26T15:35:42;43.39;41.66;50.01;;
64077;Laerm;51039;49.696;10.808;2023-02-26T15:38:08;43.56;41.80;55.19;;
64077;Laerm;51039;49.696;10.808;2023-02-26T15:40:34;44.35;42.03;60.57;;
64077;Laerm;51039;49.696;10.808;2023-02-26T15:43:02;44.00;41.80;54.36;;
64077;Laerm;51039;49.696;10.808;2023-02-26T15:45:44;44.00;41.89;58.57;;
64077;Laerm;51039;49.696;10.808;2023-02-26T15:48:13;43.92;41.91;59.55;;
64077;Laerm;51039;49.696;10.808;2023-02-26T15:50:43;43.74;41.98;56.89;;
64077;Laerm;51039;49.696;10.808;2023-02-26T15:53:19;43.95;41.87;56.08;;
64077;Laerm;51039;49.696;10.808;2023-02-26T15:55:49;43.62;41.97;54.23;;
64077;Laerm;51039;49.696;10.808;2023-02-26T15:58:21;43.57;41.91;55.35;;
64077;Laerm;51039;49.696;10.808;2023-02-26T16:00:52;43.43;41.69;52.28;;
64077;Laerm;51039;49.696;10.808;2023-02-26T16:03:24;43.34;41.65;50.72;;
64077;Laerm;51039;49.696;10.808;2023-02-26T16:05:50;43.31;41.81;49.16;;
64077;Laerm;51039;49.696;10.808;2023-02-26T16:08:15;43.27;41.75;48.54;;
64077;Laerm;51039;49.696;10.808;2023-02-26T16:10:42;43.12;41.69;49.98;;
64077;Laerm;51039;49.696;10.808;2023-02-26T16:13:14;43.09;41.59;55.74;;
64077;Laerm;51039;49.696;10.808;2023-02-26T16:15:40;42.94;41.24;44.75;;
64077;Laerm;51039;49.696;10.808;2023-02-26T16:18:17;43.16;41.20;50.49;;
64077;Laerm;51039;49.696;10.808;2023-02-26T16:20:48;43.05;41.59;52.87;;
64077;Laerm;51039;49.696;10.808;2023-02-26T16:23:17;43.04;41.64;50.20;;
64077;Laerm;51039;49.696;10.808;2023-02-26T16:25:54;43.00;41.51;49.33;;
64077;Laerm;51039;49.696;10.808;2023-02-26T16:28:28;43.01;41.42;47.61;;
64077;Laerm;51039;49.696;10.808;2023-02-26T16:30:57;42.95;41.57;45.57;;
64077;Laerm;51039;49.696;10.808;2023-02-26T16:33:24;43.19;41.41;54.18;;
64077;Laerm;51039;49.696;10.808;2023-02-26T16:35:56;42.95;41.49;48.22;;
64077;Laerm;51039;49.696;10.808;2023-02-26T16:38:31;43.00;41.43;52.65;;